Flight Track Log - Related Links

Times and Time Zones

All times are in EST time to prevent confusion due to time zone crossing. See the UAL4679 flight status page for this flight to view local times or setup timezone preferences in your user account.

Time Position Orientation Groundspeed Altitude Reporting Facility
EST Latitude Longitude Course Direction KTS MPH feet Rate Location/Type
Thu 11:33:21 AM 40.6667 -74.1833 218° Southwest 163 188 1,400  Level New York TRACON
Thu 11:34:21 AM 40.6167 -74.2000 194° South 202 232 3,000 2,250 Climbing New York TRACON
Thu 11:35:21 AM 40.5667 -74.2333 207° Southwest 230 265 5,900 900 Climbing New York TRACON
Thu 11:36:00 AM 40.3315 -74.4783 180° South  Level Estimated
Thu 11:37:00 AM 40.2411 -74.5552 207° Southwest  Level Estimated
Thu 11:37:41 AM 40.4011 -74.2050 173° South 272 313 6,000  Level New York Center
Thu 11:38:00 AM 40.1507 -74.6319 218° Southwest  Level Estimated
Thu 11:38:41 AM 40.3447 -74.1394 138° Southeast 272 313 6,900  Level New York Center
Thu 11:39:41 AM 40.2972 -74.0500 125° Southeast 286 329 10,000 2,500 Climbing New York Center
Thu 11:40:41 AM 40.2561 -74.1053 226° Southwest 181 208 11,900 2,050 Climbing New York Center
Thu 11:41:41 AM 40.2372 -74.1858 253° West 212 244 14,100 1,700 Climbing New York Center
Thu 11:42:41 AM 40.1550 -74.2144 195° South 239 275 15,300 1,300 Climbing New York Center
Thu 11:43:41 AM 40.0478 -74.2444 192° South 310 357 16,700 1,333 Climbing New York Center
Thu 11:45:14 AM 39.9214 -74.3361 209° Southwest 357 411 18,700 1,255 Climbing Washington Center
Thu 11:46:14 AM 39.8492 -74.4050 216° Southwest 362 417 19,900 1,322 Climbing Washington Center
Thu 11:47:12 AM 39.7669 -74.5008 222° Southwest 367 422 21,300 1,462 Climbing Washington Center
Thu 11:48:13 AM 39.7050 -74.5856 226° Southwest 362 417 22,800 1,525 Climbing Washington Center
Thu 11:49:14 AM 39.6289 -74.6864 226° Southwest 362 417 24,400 1,450 Climbing Washington Center
Thu 11:50:13 AM 39.5628 -74.7706 224° Southwest 362 417 25,700 1,361 Climbing Washington Center
Thu 11:51:13 AM 39.4883 -74.8736 227° Southwest 357 411 27,100 1,339 Climbing Washington Center
Thu 11:52:14 AM 39.4242 -74.9522 223° Southwest 357 411 28,400 1,412 Climbing Washington Center
Thu 11:53:12 AM 39.3478 -75.0547 226° Southwest 357 411 29,900 1,322 Climbing Washington Center
Thu 11:54:12 AM 39.2750 -75.1225 216° Southwest 365 420 31,000 1,190 Climbing Washington Center
Thu 11:55:13 AM 39.1628 -75.1714 199° South 380 437 32,300 1,131 Climbing Washington Center
Thu 11:56:14 AM 39.0522 -75.2175 198° South 408 470 33,300 793 Climbing Washington Center
Thu 11:57:14 AM 38.9483 -75.2606 198° South 408 470 33,900 356 Climbing Washington Center
Thu 11:58:12 AM 38.8378 -75.3092 199° South 408 470 34,000 51 Climbing Washington Center
Thu 11:59:12 AM 38.7211 -75.3575 198° South 425 489 34,000 50 Level Washington Center
Thu 12:00:13 PM 38.6006 -75.4083 198° South 438 504 34,100 443 Climbing Washington Center
Thu 12:01:14 PM 38.4817 -75.4511 196° South 452 520 34,900 807 Climbing Washington Center
Thu 12:02:12 PM 38.3650 -75.5017 199° South 452 520 35,700 555 Climbing Washington Center
Thu 12:03:13 PM 38.2669 -75.5839 213° Southwest 435 501 36,000 149 Climbing Washington Center
Thu 12:04:13 PM 38.1711 -75.6708 216° Southwest 428 493 36,000  Level Washington Center
Thu 12:05:12 PM 38.0750 -75.7631 217° Southwest 434 499 36,000  Level Washington Center
Thu 12:06:12 PM 37.9789 -75.8525 216° Southwest 434 499 36,000  Level Washington Center
Thu 12:07:13 PM 37.8828 -75.9444 217° Southwest 434 499 36,000  Level Washington Center
Thu 12:08:13 PM 37.7864 -76.0333 216° Southwest 434 499 36,000  Level Washington Center
Thu 12:09:13 PM 37.6986 -76.1219 219° Southwest 439 505 36,000  Level Washington Center
Thu 12:10:14 PM 37.5917 -76.2131 214° Southwest 434 499 36,000  Level Washington Center
Thu 12:11:12 PM 37.4953 -76.3011 216° Southwest 434 499 36,000  Level Washington Center
Thu 12:12:13 PM 37.3989 -76.3917 217° Southwest 434 499 36,000  Level Washington Center
Thu 12:13:13 PM 37.3022 -76.4794 216° Southwest 434 499 36,000  Level Washington Center
Thu 12:14:14 PM 37.2036 -76.5669 215° Southwest 434 499 36,000  Level Washington Center
Thu 12:15:12 PM 37.1089 -76.6544 216° Southwest 429 494 36,000  Level Washington Center
Thu 12:16:13 PM 37.0142 -76.7417 216° Southwest 429 494 36,000  Level Washington Center
Thu 12:17:14 PM 36.9175 -76.8258 215° Southwest 429 494 36,000  Level Washington Center
Thu 12:18:12 PM 36.8247 -76.9125 217° Southwest 429 494 36,000  Level Washington Center
Thu 12:19:13 PM 36.7300 -76.9992 216° Southwest 429 494 36,000  Level Washington Center
Thu 12:20:13 PM 36.6350 -77.0881 217° Southwest 434 499 36,000  Level Washington Center
Thu 12:21:12 PM 36.5419 -77.1767 217° Southwest 434 499 36,000  Level Washington Center
Thu 12:22:12 PM 36.4469 -77.2653 217° Southwest 434 499 36,000  Level Washington Center
Thu 12:23:15 PM 36.3517 -77.3561 218° Southwest 439 505 36,000  Level Washington Center
Thu 12:24:13 PM 36.2544 -77.4467 217° Southwest 439 505 36,000  Level Washington Center
Thu 12:25:14 PM 36.1633 -77.5344 218° Southwest 439 505 36,000  Level Washington Center
Thu 12:26:12 PM 36.0700 -77.6222 217° Southwest 439 505 36,000  Level Washington Center
Thu 12:27:13 PM 35.9725 -77.7094 216° Southwest 439 505 36,000  Level Washington Center
Thu 12:28:13 PM 35.8708 -77.7886 212° Southwest 439 505 36,000  Level Washington Center
Thu 12:29:13 PM 35.7714 -77.8678 213° Southwest 439 505 36,000  Level Washington Center
Thu 12:30:14 PM 35.6697 -77.9467 212° Southwest 439 505 36,000  Level Washington Center
Thu 12:31:14 PM 35.5700 -78.0256 213° Southwest 439 505 36,000  Level Washington Center
Thu 12:32:12 PM 35.4664 -78.1014 211° Southwest 439 505 36,000  Level Washington Center
Thu 12:33:12 PM 35.3664 -78.1825 213° Southwest 439 505 36,000  Level Washington Center
Thu 12:34:14 PM 35.2603 -78.2631 212° Southwest 439 505 36,000  Level Washington Center
Thu 12:35:14 PM 35.1606 -78.3408 213° Southwest 439 505 36,000  Level Washington Center
Thu 12:36:14 PM 35.0797 -78.4042 213° Southwest 439 505 36,000  Level Washington Center
Thu 12:37:12 PM 34.9692 -78.4892 212° Southwest 439 505 36,000  Level Washington Center
Thu 12:38:13 PM 34.8692 -78.5664 212° Southwest 439 505 36,000  Level Washington Center
Thu 12:39:13 PM 34.7608 -78.6458 211° Southwest 439 505 36,000  Level Washington Center
Thu 12:40:43 PM 34.6158 -78.7603 213° Southwest 439 505 36,000  Level Jacksonville Center
Thu 12:41:43 PM 34.5139 -78.8358 211° Southwest 439 505 36,000  Level Jacksonville Center
Thu 12:42:43 PM 34.4142 -78.9158 214° Southwest 439 505 36,000  Level Jacksonville Center
Thu 12:43:43 PM 34.3125 -78.9961 213° Southwest 439 505 36,000  Level Jacksonville Center
Thu 12:44:43 PM 34.2103 -79.0708 211° Southwest 439 505 36,000  Level Jacksonville Center
Thu 12:45:43 PM 34.1064 -79.1458 211° Southwest 439 505 36,000  Level Jacksonville Center
Thu 12:46:43 PM 34.0064 -79.2228 213° Southwest 439 505 36,000  Level Jacksonville Center
Thu 12:47:43 PM 33.9022 -79.2994 211° Southwest 439 505 36,000  Level Jacksonville Center
Thu 12:48:43 PM 33.7897 -79.3842 212° Southwest 439 505 36,000  Level Jacksonville Center
Thu 12:49:43 PM 33.6914 -79.4528 210° Southwest 439 505 36,000  Level Jacksonville Center
Thu 12:50:43 PM 33.5892 -79.5292 212° Southwest 433 498 36,000  Level Jacksonville Center
Thu 12:51:43 PM 33.4869 -79.6053 212° Southwest 433 498 36,000  Level Jacksonville Center
Thu 12:52:43 PM 33.3825 -79.6814 211° Southwest 438 504 36,000 -50 Level Jacksonville Center
Thu 12:53:43 PM 33.2800 -79.7544 211° Southwest 438 504 35,900 -550 Descending Jacksonville Center
Thu 12:54:43 PM 33.1775 -79.8325 213° Southwest 438 504 34,900 -1,000 Descending Jacksonville Center
Thu 12:55:43 PM 33.0747 -79.9056 211° Southwest 438 504 33,900 -1,000 Descending Jacksonville Center
Thu 12:56:43 PM 32.9700 -79.9808 211° Southwest 438 504 32,900 -900 Descending Jacksonville Center
Thu 12:57:43 PM 32.8861 -80.0453 213° Southwest 438 504 32,100 -900 Descending Jacksonville Center
Thu 12:58:43 PM 32.7731 -80.1331 213° Southwest 443 510 31,100 -1,000 Descending Jacksonville Center
Thu 12:59:43 PM 32.6725 -80.2125 214° Southwest 448 516 30,100 -550 Descending Jacksonville Center
Thu 01:00:43 PM 32.5700 -80.2969 215° Southwest 448 516 30,000 -50 Descending Jacksonville Center
Thu 01:01:43 PM 32.4653 -80.3786 213° Southwest 448 516 30,000  Level Jacksonville Center
Thu 01:02:43 PM 32.3644 -80.4578 214° Southwest 453 521 30,000  Level Jacksonville Center
Thu 01:03:43 PM 32.2703 -80.5511 220° Southwest 453 521 30,000  Level Jacksonville Center
Thu 01:04:43 PM 32.1842 -80.6489 224° Southwest 442 509 30,000  Level Jacksonville Center
Thu 01:05:43 PM 32.1003 -80.7467 225° Southwest 430 495 30,000  Level Jacksonville Center
Thu 01:06:43 PM 32.0061 -80.8567 225° Southwest 425 489 30,000  Level Jacksonville Center
Thu 01:07:43 PM 31.9200 -80.9517 223° Southwest 425 489 30,000 -400 Level Jacksonville Center
Thu 01:08:43 PM 31.8269 -81.0219 213° Southwest 435 501 29,200 -1,400 Descending Jacksonville Center
Thu 01:09:43 PM 31.6919 -81.0639 195° South 449 517 27,200 -1,900 Descending Jacksonville Center
Thu 01:10:43 PM 31.5672 -81.1053 196° South 461 531 25,400 -2,100 Descending Jacksonville Center
Thu 01:11:43 PM 31.4444 -81.1417 194° South 456 525 23,000 -2,150 Descending Jacksonville Center
Thu 01:12:43 PM 31.3386 -81.1778 196° South 443 510 21,100 -2,150 Descending Jacksonville Center
Thu 01:13:43 PM 31.2242 -81.2114 194° South 443 510 18,700 -2,330 Descending Jacksonville Center
Thu 01:14:26 PM 31.1369 -81.2397 196° South 409 471 17,100 -2,000 Descending Jacksonville Center
Thu 01:14:43 PM 31.1139 -81.2472 196° South 426 490 16,700 -2,512 Descending Jacksonville Center
Thu 01:15:09 PM 31.0536 -81.2631 193° South 398 458 15,300 -2,300 Descending Jacksonville Center
Thu 01:15:43 PM 31.0100 -81.2783 197° South 405 466 14,400 -2,328 Descending Jacksonville Center
Thu 01:16:16 PM 30.9517 -81.2961 195° South 333 383 12,700 -2,400 Descending Jacksonville Center
Thu 01:16:43 PM 30.9206 -81.3064 196° South 370 426 12,000 -1,967 Descending Jacksonville Center
Thu 01:17:17 PM 30.8686 -81.3242 196° South 291 335 10,700 -1,800 Descending Jacksonville Center
Thu 01:17:43 PM 30.8458 -81.3439 217° Southwest 330 380 10,200 -1,574 Descending Jacksonville Center
Thu 01:18:18 PM 30.8153 -81.3978 237° Southwest 286 329 9,100 -1,500 Descending Jacksonville Center
Thu 01:18:43 PM 30.8031 -81.4197 237° Southwest 281 323 8,700 -1,418 Descending Jacksonville Center
Thu 01:19:13 PM 30.7764 -81.4661 236° Southwest 275 316 7,800 -1,300 Descending Jacksonville Center
Thu 01:19:43 PM 30.7600 -81.4953 237° Southwest 281 323 7,400 -1,082 Descending Jacksonville Center
Thu 01:20:14 PM 30.7333 -81.5417 236° Southwest 275 316 6,700 -1,000 Descending Jacksonville Center
Thu 01:20:43 PM 30.7211 -81.5658 240° Southwest 281 323 6,400 -896 Descending Jacksonville Center
Thu 01:21:21 PM 30.6944 -81.6122 236° Southwest 231 266 5,700 -1,000 Descending Jacksonville Center
Thu 01:21:43 PM 30.6819 -81.6292 229° Southwest 261 300 5,400 -1,082 Descending Jacksonville Center
Thu 01:22:22 PM 30.6575 -81.6778 240° Southwest 230 265 4,600 -1,000 Descending Jacksonville Center
Thu 01:22:43 PM 30.6492 -81.6900 232° Southwest 243 280 4,400 -984 Descending Jacksonville Center
Thu 01:23:23 PM 30.6203 -81.7364 234° Southwest 224 258 3,600 -1,000 Descending Jacksonville Center
Thu 01:23:43 PM 30.6142 -81.7508 244° Southwest 238 274 3,400 -590 Descending Jacksonville Center
Thu 01:24:24 PM 30.5897 -81.7994 240° Southwest 223 257 3,000 -278 Descending Jacksonville Center
Thu 01:25:31 PM 30.5506 -81.8650 235° Southwest 215 247 2,900 -443 Descending Jacksonville Center
Thu 01:26:26 PM 30.5003 -81.8486 164° South 220 253 2,100 -517 Descending Jacksonville Center
Thu 01:27:27 PM 30.4622 -81.8033 134° Southeast 211 243 1,900 -541 Descending Jacksonville Center
Thu 01:28:28 PM 30.4786 -81.7500 70° East 167 192 1,000 -828 Descending Jacksonville Center
Thu 01:29:23 PM 30.4908 -81.7139 69° East 125 144 300 -764 Descending Jacksonville Center

Login

Don't have an account? Register now (free) for customized features, flight alerts, and more!